sensor_id;sensor_type;location;lat;lon;timestamp;temperature;humidity
59146;DHT22;44928;53.074;6.646;2022-09-09T00:02:23;14.80;99.90
59146;DHT22;44928;53.074;6.646;2022-09-09T00:05:00;14.80;99.90
59146;DHT22;44928;53.074;6.646;2022-09-09T00:07:51;14.80;99.90
59146;DHT22;44928;53.074;6.646;2022-09-09T00:20:55;14.70;99.90
59146;DHT22;44928;53.074;6.646;2022-09-09T00:23:34;14.70;99.90
59146;DHT22;44928;53.074;6.646;2022-09-09T00:28:48;14.70;99.90
59146;DHT22;44928;53.074;6.646;2022-09-09T00:31:20;14.70;99.90
59146;DHT22;44928;53.074;6.646;2022-09-09T00:33:48;14.70;99.90
59146;DHT22;44928;53.074;6.646;2022-09-09T00:36:17;14.70;99.90
59146;DHT22;44928;53.074;6.646;2022-09-09T00:38:53;14.70;99.90
59146;DHT22;44928;53.074;6.646;2022-09-09T00:44:25;14.60;99.90
59146;DHT22;44928;53.074;6.646;2022-09-09T00:52:30;14.50;99.90
59146;DHT22;44928;53.074;6.646;2022-09-09T00:57:51;14.50;99.90
59146;DHT22;44928;53.074;6.646;2022-09-09T01:00:31;14.50;99.90
59146;DHT22;44928;53.074;6.646;2022-09-09T01:09:10;14.40;99.90
59146;DHT22;44928;53.074;6.646;2022-09-09T01:27:54;14.30;99.90
59146;DHT22;44928;53.074;6.646;2022-09-09T01:30:21;14.30;99.90
59146;DHT22;44928;53.074;6.646;2022-09-09T01:32:55;14.30;99.90
59146;DHT22;44928;53.074;6.646;2022-09-09T01:38:08;14.30;99.90
59146;DHT22;44928;53.074;6.646;2022-09-09T01:40:34;14.20;99.90
59146;DHT22;44928;53.074;6.646;2022-09-09T01:43:00;14.20;99.90
59146;DHT22;44928;53.074;6.646;2022-09-09T01:45:26;14.20;99.90
59146;DHT22;44928;53.074;6.646;2022-09-09T01:47:52;14.20;99.90
59146;DHT22;44928;53.074;6.646;2022-09-09T01:50:20;14.20;99.90
59146;DHT22;44928;53.074;6.646;2022-09-09T01:52:56;14.20;99.90
59146;DHT22;44928;53.074;6.646;2022-09-09T01:55:42;14.20;99.90
59146;DHT22;44928;53.074;6.646;2022-09-09T01:58:22;14.20;99.90
59146;DHT22;44928;53.074;6.646;2022-09-09T02:02:01;14.20;99.90
59146;DHT22;44928;53.074;6.646;2022-09-09T02:03:57;14.20;99.90
59146;DHT22;44928;53.074;6.646;2022-09-09T02:06:32;14.20;99.90
59146;DHT22;44928;53.074;6.646;2022-09-09T02:09:02;14.20;99.90
59146;DHT22;44928;53.074;6.646;2022-09-09T02:11:29;14.10;99.90
59146;DHT22;44928;53.074;6.646;2022-09-09T02:14:18;14.10;99.90
59146;DHT22;44928;53.074;6.646;2022-09-09T02:16:54;14.10;99.90
59146;DHT22;44928;53.074;6.646;2022-09-09T02:21:52;14.10;99.90
59146;DHT22;44928;53.074;6.646;2022-09-09T02:24:19;14.10;99.90
59146;DHT22;44928;53.074;6.646;2022-09-09T02:26:47;14.20;99.90
59146;DHT22;44928;53.074;6.646;2022-09-09T02:29:20;14.20;99.90
59146;DHT22;44928;53.074;6.646;2022-09-09T02:31:49;14.20;99.90
59146;DHT22;44928;53.074;6.646;2022-09-09T02:34:19;14.20;99.90
59146;DHT22;44928;53.074;6.646;2022-09-09T02:36:47;14.20;99.90
59146;DHT22;44928;53.074;6.646;2022-09-09T02:39:14;14.20;99.90
59146;DHT22;44928;53.074;6.646;2022-09-09T02:41:41;14.20;99.90
59146;DHT22;44928;53.074;6.646;2022-09-09T02:44:12;14.20;99.90
59146;DHT22;44928;53.074;6.646;2022-09-09T02:46:51;14.20;99.90
59146;DHT22;44928;53.074;6.646;2022-09-09T02:52:20;14.20;99.90
59146;DHT22;44928;53.074;6.646;2022-09-09T02:54:54;14.30;99.90
59146;DHT22;44928;53.074;6.646;2022-09-09T02:57:27;14.30;99.90
59146;DHT22;44928;53.074;6.646;2022-09-09T03:00:00;14.30;99.90
59146;DHT22;44928;53.074;6.646;2022-09-09T03:02:27;14.30;99.90
59146;DHT22;44928;53.074;6.646;2022-09-09T03:04:52;14.40;99.90
59146;DHT22;44928;53.074;6.646;2022-09-09T03:07:19;14.40;99.90
59146;DHT22;44928;53.074;6.646;2022-09-09T03:09:45;14.40;99.90
59146;DHT22;44928;53.074;6.646;2022-09-09T03:12:11;14.40;99.90
59146;DHT22;44928;53.074;6.646;2022-09-09T03:14:37;14.40;99.90
59146;DHT22;44928;53.074;6.646;2022-09-09T03:17:04;14.50;99.90
59146;DHT22;44928;53.074;6.646;2022-09-09T03:19:30;14.50;99.90
59146;DHT22;44928;53.074;6.646;2022-09-09T03:21:57;14.50;99.90
59146;DHT22;44928;53.074;6.646;2022-09-09T03:24:24;14.50;99.90
59146;DHT22;44928;53.074;6.646;2022-09-09T03:26:50;14.50;99.90
59146;DHT22;44928;53.074;6.646;2022-09-09T03:29:16;14.60;99.90
59146;DHT22;44928;53.074;6.646;2022-09-09T03:31:42;14.60;99.90
59146;DHT22;44928;53.074;6.646;2022-09-09T03:34:08;14.60;99.90
59146;DHT22;44928;53.074;6.646;2022-09-09T03:36:34;14.70;99.90
59146;DHT22;44928;53.074;6.646;2022-09-09T03:39:00;14.70;99.90
59146;DHT22;44928;53.074;6.646;2022-09-09T03:41:28;14.70;99.90
59146;DHT22;44928;53.074;6.646;2022-09-09T03:43:54;14.70;99.90
59146;DHT22;44928;53.074;6.646;2022-09-09T03:46:22;14.70;99.90
59146;DHT22;44928;53.074;6.646;2022-09-09T03:48:48;14.70;99.90
59146;DHT22;44928;53.074;6.646;2022-09-09T03:51:14;14.70;99.90
59146;DHT22;44928;53.074;6.646;2022-09-09T03:53:41;14.70;99.90
59146;DHT22;44928;53.074;6.646;2022-09-09T03:56:08;14.70;99.90
59146;DHT22;44928;53.074;6.646;2022-09-09T03:58:36;14.70;99.90
59146;DHT22;44928;53.074;6.646;2022-09-09T04:01:05;14.70;99.90
59146;DHT22;44928;53.074;6.646;2022-09-09T04:03:31;14.80;99.90
59146;DHT22;44928;53.074;6.646;2022-09-09T04:05:59;14.80;99.90
59146;DHT22;44928;53.074;6.646;2022-09-09T04:08:26;14.80;99.90
59146;DHT22;44928;53.074;6.646;2022-09-09T04:10:52;14.80;99.90
59146;DHT22;44928;53.074;6.646;2022-09-09T04:13:19;14.80;99.90
59146;DHT22;44928;53.074;6.646;2022-09-09T04:15:56;14.80;99.90
59146;DHT22;44928;53.074;6.646;2022-09-09T04:18:22;14.80;99.90
59146;DHT22;44928;53.074;6.646;2022-09-09T04:20:50;14.80;99.90
59146;DHT22;44928;53.074;6.646;2022-09-09T04:23:16;14.80;99.90
59146;DHT22;44928;53.074;6.646;2022-09-09T04:25:52;14.80;99.90
59146;DHT22;44928;53.074;6.646;2022-09-09T04:28:19;14.80;99.90
59146;DHT22;44928;53.074;6.646;2022-09-09T04:30:46;14.80;99.90
59146;DHT22;44928;53.074;6.646;2022-09-09T04:33:13;14.70;99.90
59146;DHT22;44928;53.074;6.646;2022-09-09T04:35:43;14.70;99.90
59146;DHT22;44928;53.074;6.646;2022-09-09T04:38:09;14.70;99.90
59146;DHT22;44928;53.074;6.646;2022-09-09T04:40:35;14.70;99.90
59146;DHT22;44928;53.074;6.646;2022-09-09T04:43:02;14.70;99.90
59146;DHT22;44928;53.074;6.646;2022-09-09T04:45:31;14.70;99.90
59146;DHT22;44928;53.074;6.646;2022-09-09T04:47:57;14.70;99.90
59146;DHT22;44928;53.074;6.646;2022-09-09T04:50:23;14.70;99.90
59146;DHT22;44928;53.074;6.646;2022-09-09T04:52:50;14.70;99.90
59146;DHT22;44928;53.074;6.646;2022-09-09T04:55:16;14.70;99.90
59146;DHT22;44928;53.074;6.646;2022-09-09T04:57:42;14.70;99.90
59146;DHT22;44928;53.074;6.646;2022-09-09T05:00:08;14.70;99.90
59146;DHT22;44928;53.074;6.646;2022-09-09T05:02:39;14.70;99.90
59146;DHT22;44928;53.074;6.646;2022-09-09T05:05:06;14.70;99.90
59146;DHT22;44928;53.074;6.646;2022-09-09T05:07:31;14.70;99.90
59146;DHT22;44928;53.074;6.646;2022-09-09T05:09:57;14.70;99.90
59146;DHT22;44928;53.074;6.646;2022-09-09T05:12:24;14.70;99.90
59146;DHT22;44928;53.074;6.646;2022-09-09T05:14:51;14.70;99.90
59146;DHT22;44928;53.074;6.646;2022-09-09T05:17:17;14.70;99.90
59146;DHT22;44928;53.074;6.646;2022-09-09T05:19:43;14.60;99.90
59146;DHT22;44928;53.074;6.646;2022-09-09T05:22:10;14.60;99.90
59146;DHT22;44928;53.074;6.646;2022-09-09T05:24:37;14.60;99.90
59146;DHT22;44928;53.074;6.646;2022-09-09T05:27:04;14.60;99.90
59146;DHT22;44928;53.074;6.646;2022-09-09T05:29:32;14.60;99.90
59146;DHT22;44928;53.074;6.646;2022-09-09T05:31:59;14.60;99.90
59146;DHT22;44928;53.074;6.646;2022-09-09T05:34:25;14.60;99.90
59146;DHT22;44928;53.074;6.646;2022-09-09T05:36:51;14.60;99.90
59146;DHT22;44928;53.074;6.646;2022-09-09T05:39:18;14.60;99.90
59146;DHT22;44928;53.074;6.646;2022-09-09T05:41:44;14.60;99.90
59146;DHT22;44928;53.074;6.646;2022-09-09T05:44:09;14.60;99.90
59146;DHT22;44928;53.074;6.646;2022-09-09T05:46:35;14.60;99.90
59146;DHT22;44928;53.074;6.646;2022-09-09T05:49:02;14.60;99.90
59146;DHT22;44928;53.074;6.646;2022-09-09T05:51:29;14.60;99.90
59146;DHT22;44928;53.074;6.646;2022-09-09T05:53:58;14.60;99.90
59146;DHT22;44928;53.074;6.646;2022-09-09T05:56:28;14.60;99.90
59146;DHT22;44928;53.074;6.646;2022-09-09T05:58:55;14.60;99.90
59146;DHT22;44928;53.074;6.646;2022-09-09T06:01:28;14.60;99.90
59146;DHT22;44928;53.074;6.646;2022-09-09T06:03:54;14.60;99.90
59146;DHT22;44928;53.074;6.646;2022-09-09T06:06:26;14.60;99.90
59146;DHT22;44928;53.074;6.646;2022-09-09T06:08:53;14.60;99.90
59146;DHT22;44928;53.074;6.646;2022-09-09T06:11:22;14.60;99.90
59146;DHT22;44928;53.074;6.646;2022-09-09T06:13:49;14.60;99.90
59146;DHT22;44928;53.074;6.646;2022-09-09T06:16:20;14.60;99.90
59146;DHT22;44928;53.074;6.646;2022-09-09T06:18:48;14.60;99.90
59146;DHT22;44928;53.074;6.646;2022-09-09T06:21:20;14.60;99.90
59146;DHT22;44928;53.074;6.646;2022-09-09T06:23:46;14.60;99.90
59146;DHT22;44928;53.074;6.646;2022-09-09T06:26:18;14.60;99.90
59146;DHT22;44928;53.074;6.646;2022-09-09T06:28:46;14.60;99.90
59146;DHT22;44928;53.074;6.646;2022-09-09T06:31:15;14.60;99.90
59146;DHT22;44928;53.074;6.646;2022-09-09T06:33:47;14.60;99.90
59146;DHT22;44928;53.074;6.646;2022-09-09T06:36:39;14.60;99.90
59146;DHT22;44928;53.074;6.646;2022-09-09T06:39:06;14.70;99.90
59146;DHT22;44928;53.074;6.646;2022-09-09T06:41:33;14.60;99.90
59146;DHT22;44928;53.074;6.646;2022-09-09T06:43:59;14.70;99.90
59146;DHT22;44928;53.074;6.646;2022-09-09T06:46:29;14.70;99.90
59146;DHT22;44928;53.074;6.646;2022-09-09T06:48:56;14.70;99.90
59146;DHT22;44928;53.074;6.646;2022-09-09T06:51:27;14.70;99.90
59146;DHT22;44928;53.074;6.646;2022-09-09T06:53:56;14.80;99.90
59146;DHT22;44928;53.074;6.646;2022-09-09T06:58:52;14.80;99.90
59146;DHT22;44928;53.074;6.646;2022-09-09T07:01:21;14.90;99.90
59146;DHT22;44928;53.074;6.646;2022-09-09T07:03:48;14.90;99.90
59146;DHT22;44928;53.074;6.646;2022-09-09T07:06:18;14.90;99.90
59146;DHT22;44928;53.074;6.646;2022-09-09T07:08:48;14.90;99.90
59146;DHT22;44928;53.074;6.646;2022-09-09T07:11:14;14.90;99.90
59146;DHT22;44928;53.074;6.646;2022-09-09T07:13:40;14.90;99.90
59146;DHT22;44928;53.074;6.646;2022-09-09T07:16:10;15.00;99.90
59146;DHT22;44928;53.074;6.646;2022-09-09T07:18:36;15.00;99.90
59146;DHT22;44928;53.074;6.646;2022-09-09T07:21:03;15.00;99.90
59146;DHT22;44928;53.074;6.646;2022-09-09T07:23:30;15.10;99.90
59146;DHT22;44928;53.074;6.646;2022-09-09T07:25:57;15.10;99.90
59146;DHT22;44928;53.074;6.646;2022-09-09T07:28:24;15.20;99.90
59146;DHT22;44928;53.074;6.646;2022-09-09T07:30:58;15.20;99.90
59146;DHT22;44928;53.074;6.646;2022-09-09T07:33:24;15.20;99.90
59146;DHT22;44928;53.074;6.646;2022-09-09T07:35:51;15.30;99.90
59146;DHT22;44928;53.074;6.646;2022-09-09T07:38:18;15.30;99.90
59146;DHT22;44928;53.074;6.646;2022-09-09T07:40:45;15.30;99.90
59146;DHT22;44928;53.074;6.646;2022-09-09T07:43:11;15.30;99.90
59146;DHT22;44928;53.074;6.646;2022-09-09T07:45:37;15.40;99.90
59146;DHT22;44928;53.074;6.646;2022-09-09T07:48:04;15.40;99.90
59146;DHT22;44928;53.074;6.646;2022-09-09T07:50:31;15.40;99.90
59146;DHT22;44928;53.074;6.646;2022-09-09T07:52:56;15.40;99.90
59146;DHT22;44928;53.074;6.646;2022-09-09T07:55:23;15.50;99.90
59146;DHT22;44928;53.074;6.646;2022-09-09T07:57:55;15.50;99.90
59146;DHT22;44928;53.074;6.646;2022-09-09T08:00:21;15.50;99.90
59146;DHT22;44928;53.074;6.646;2022-09-09T08:02:48;15.50;99.90
59146;DHT22;44928;53.074;6.646;2022-09-09T08:05:14;15.50;99.90
59146;DHT22;44928;53.074;6.646;2022-09-09T08:07:40;15.60;99.90
59146;DHT22;44928;53.074;6.646;2022-09-09T08:10:06;15.60;99.90
59146;DHT22;44928;53.074;6.646;2022-09-09T08:12:32;15.70;99.90
59146;DHT22;44928;53.074;6.646;2022-09-09T08:14:58;15.70;99.90
59146;DHT22;44928;53.074;6.646;2022-09-09T08:17:23;15.80;99.90
59146;DHT22;44928;53.074;6.646;2022-09-09T08:19:49;15.80;99.90
59146;DHT22;44928;53.074;6.646;2022-09-09T08:22:15;15.90;99.90
59146;DHT22;44928;53.074;6.646;2022-09-09T08:24:41;15.90;99.90
59146;DHT22;44928;53.074;6.646;2022-09-09T08:27:07;15.90;99.90
59146;DHT22;44928;53.074;6.646;2022-09-09T08:29:32;15.90;99.90
59146;DHT22;44928;53.074;6.646;2022-09-09T08:31:59;16.00;99.90
59146;DHT22;44928;53.074;6.646;2022-09-09T08:34:25;16.00;99.90
59146;DHT22;44928;53.074;6.646;2022-09-09T08:36:53;16.00;99.90
59146;DHT22;44928;53.074;6.646;2022-09-09T08:39:20;16.00;99.90
59146;DHT22;44928;53.074;6.646;2022-09-09T08:52:27;16.30;99.90
59146;DHT22;44928;53.074;6.646;2022-09-09T08:54:56;16.40;99.90
59146;DHT22;44928;53.074;6.646;2022-09-09T08:57:26;16.40;99.90
59146;DHT22;44928;53.074;6.646;2022-09-09T08:59:54;16.40;99.90
59146;DHT22;44928;53.074;6.646;2022-09-09T09:05:33;16.50;99.90
59146;DHT22;44928;53.074;6.646;2022-09-09T09:10:46;16.60;99.90
59146;DHT22;44928;53.074;6.646;2022-09-09T09:13:39;16.70;99.90
59146;DHT22;44928;53.074;6.646;2022-09-09T09:16:34;16.70;99.90
59146;DHT22;44928;53.074;6.646;2022-09-09T09:19:03;16.80;99.90
59146;DHT22;44928;53.074;6.646;2022-09-09T09:21:43;16.80;99.90
59146;DHT22;44928;53.074;6.646;2022-09-09T09:27:40;16.80;99.90
59146;DHT22;44928;53.074;6.646;2022-09-09T09:30:19;16.90;99.90
59146;DHT22;44928;53.074;6.646;2022-09-09T09:35:41;17.00;99.90
59146;DHT22;44928;53.074;6.646;2022-09-09T09:38:19;17.10;99.90
59146;DHT22;44928;53.074;6.646;2022-09-09T09:40:53;17.20;99.90
59146;DHT22;44928;53.074;6.646;2022-09-09T09:45:55;17.50;99.90
59146;DHT22;44928;53.074;6.646;2022-09-09T09:48:24;17.60;99.90
59146;DHT22;44928;53.074;6.646;2022-09-09T09:50:56;17.60;99.90
59146;DHT22;44928;53.074;6.646;2022-09-09T09:53:26;17.60;99.90
59146;DHT22;44928;53.074;6.646;2022-09-09T09:56:10;17.70;99.90
59146;DHT22;44928;53.074;6.646;2022-09-09T10:01:29;17.80;99.90
59146;DHT22;44928;53.074;6.646;2022-09-09T10:03:59;18.00;99.90
59146;DHT22;44928;53.074;6.646;2022-09-09T10:06:32;18.10;99.90
59146;DHT22;44928;53.074;6.646;2022-09-09T10:08:59;18.20;99.90
59146;DHT22;44928;53.074;6.646;2022-09-09T10:14:48;18.20;99.90
59146;DHT22;44928;53.074;6.646;2022-09-09T10:22:27;18.20;99.90
59146;DHT22;44928;53.074;6.646;2022-09-09T10:28:03;18.20;99.90
59146;DHT22;44928;53.074;6.646;2022-09-09T10:33:28;18.20;99.90
59146;DHT22;44928;53.074;6.646;2022-09-09T10:36:21;18.30;99.90
59146;DHT22;44928;53.074;6.646;2022-09-09T10:38:53;18.40;99.90
59146;DHT22;44928;53.074;6.646;2022-09-09T10:42:08;18.40;99.90
59146;DHT22;44928;53.074;6.646;2022-09-09T10:45:35;18.50;99.90
59146;DHT22;44928;53.074;6.646;2022-09-09T10:48:09;18.60;99.90
59146;DHT22;44928;53.074;6.646;2022-09-09T10:51:11;18.60;99.90
59146;DHT22;44928;53.074;6.646;2022-09-09T10:56:44;18.60;99.90
59146;DHT22;44928;53.074;6.646;2022-09-09T10:59:26;18.60;99.90
59146;DHT22;44928;53.074;6.646;2022-09-09T11:04:45;18.70;99.90
59146;DHT22;44928;53.074;6.646;2022-09-09T11:07:21;18.70;99.90
59146;DHT22;44928;53.074;6.646;2022-09-09T11:09:54;18.70;99.90
59146;DHT22;44928;53.074;6.646;2022-09-09T11:12:23;18.80;99.90
59146;DHT22;44928;53.074;6.646;2022-09-09T11:15:06;18.90;99.90
59146;DHT22;44928;53.074;6.646;2022-09-09T11:17:47;18.90;99.90
59146;DHT22;44928;53.074;6.646;2022-09-09T11:20:15;19.00;99.90
59146;DHT22;44928;53.074;6.646;2022-09-09T11:23:13;19.10;99.90
59146;DHT22;44928;53.074;6.646;2022-09-09T11:25:48;19.30;99.90
59146;DHT22;44928;53.074;6.646;2022-09-09T11:41:53;19.60;99.90
59146;DHT22;44928;53.074;6.646;2022-09-09T11:44:30;19.70;99.90
59146;DHT22;44928;53.074;6.646;2022-09-09T11:46:56;19.70;99.90
59146;DHT22;44928;53.074;6.646;2022-09-09T11:49:28;19.70;99.90
59146;DHT22;44928;53.074;6.646;2022-09-09T11:51:56;19.60;99.90
59146;DHT22;44928;53.074;6.646;2022-09-09T11:54:33;19.50;99.90
59146;DHT22;44928;53.074;6.646;2022-09-09T11:57:02;19.50;99.90
59146;DHT22;44928;53.074;6.646;2022-09-09T11:59:31;19.40;99.90
59146;DHT22;44928;53.074;6.646;2022-09-09T12:04:33;19.40;99.90
59146;DHT22;44928;53.074;6.646;2022-09-09T12:07:04;19.50;99.90
59146;DHT22;44928;53.074;6.646;2022-09-09T12:09:45;19.40;99.90
59146;DHT22;44928;53.074;6.646;2022-09-09T12:19:40;19.30;99.90
59146;DHT22;44928;53.074;6.646;2022-09-09T12:24:49;19.50;99.90
59146;DHT22;44928;53.074;6.646;2022-09-09T12:27:33;19.50;99.90
59146;DHT22;44928;53.074;6.646;2022-09-09T12:30:15;19.50;99.90
59146;DHT22;44928;53.074;6.646;2022-09-09T12:32:41;19.40;99.90
59146;DHT22;44928;53.074;6.646;2022-09-09T12:35:22;19.50;99.90
59146;DHT22;44928;53.074;6.646;2022-09-09T12:37:55;19.50;99.90
59146;DHT22;44928;53.074;6.646;2022-09-09T12:40:29;19.60;99.90
59146;DHT22;44928;53.074;6.646;2022-09-09T12:42:59;19.70;99.90
59146;DHT22;44928;53.074;6.646;2022-09-09T12:45:31;19.70;99.90
59146;DHT22;44928;53.074;6.646;2022-09-09T12:48:06;19.80;99.90
59146;DHT22;44928;53.074;6.646;2022-09-09T12:50:38;19.90;99.90
59146;DHT22;44928;53.074;6.646;2022-09-09T12:53:12;20.00;99.90
59146;DHT22;44928;53.074;6.646;2022-09-09T12:55:59;20.10;99.90
59146;DHT22;44928;53.074;6.646;2022-09-09T12:58:26;20.10;99.90
59146;DHT22;44928;53.074;6.646;2022-09-09T13:00:55;20.10;99.90
59146;DHT22;44928;53.074;6.646;2022-09-09T13:03:23;20.10;99.90
59146;DHT22;44928;53.074;6.646;2022-09-09T13:05:50;20.20;99.90
59146;DHT22;44928;53.074;6.646;2022-09-09T13:08:17;20.20;99.90
59146;DHT22;44928;53.074;6.646;2022-09-09T13:13:27;20.30;99.90
59146;DHT22;44928;53.074;6.646;2022-09-09T13:16:00;20.40;99.90
59146;DHT22;44928;53.074;6.646;2022-09-09T13:18:35;20.40;99.90
59146;DHT22;44928;53.074;6.646;2022-09-09T13:21:01;20.50;99.90
59146;DHT22;44928;53.074;6.646;2022-09-09T13:23:33;20.50;99.90
59146;DHT22;44928;53.074;6.646;2022-09-09T13:26:22;20.50;99.90
59146;DHT22;44928;53.074;6.646;2022-09-09T13:28:48;20.50;99.90
59146;DHT22;44928;53.074;6.646;2022-09-09T13:31:44;20.40;99.90
59146;DHT22;44928;53.074;6.646;2022-09-09T13:34:12;20.30;99.90
59146;DHT22;44928;53.074;6.646;2022-09-09T13:36:38;20.20;99.90
59146;DHT22;44928;53.074;6.646;2022-09-09T13:39:15;20.10;99.90
59146;DHT22;44928;53.074;6.646;2022-09-09T13:41:44;20.00;99.90
59146;DHT22;44928;53.074;6.646;2022-09-09T13:44:33;19.80;99.90
59146;DHT22;44928;53.074;6.646;2022-09-09T13:47:31;19.80;99.90
59146;DHT22;44928;53.074;6.646;2022-09-09T13:49:57;19.60;99.90
59146;DHT22;44928;53.074;6.646;2022-09-09T13:52:23;19.50;99.90
59146;DHT22;44928;53.074;6.646;2022-09-09T13:54:50;19.50;99.90
59146;DHT22;44928;53.074;6.646;2022-09-09T13:57:20;19.50;99.90
59146;DHT22;44928;53.074;6.646;2022-09-09T13:59:47;19.40;99.90
59146;DHT22;44928;53.074;6.646;2022-09-09T14:02:14;19.30;99.90
59146;DHT22;44928;53.074;6.646;2022-09-09T14:04:40;19.30;99.90
59146;DHT22;44928;53.074;6.646;2022-09-09T14:07:12;19.30;99.90
59146;DHT22;44928;53.074;6.646;2022-09-09T14:09:38;19.40;99.90
59146;DHT22;44928;53.074;6.646;2022-09-09T14:12:04;19.40;99.90
59146;DHT22;44928;53.074;6.646;2022-09-09T14:14:30;19.50;99.90
59146;DHT22;44928;53.074;6.646;2022-09-09T14:16:56;19.60;99.90
59146;DHT22;44928;53.074;6.646;2022-09-09T14:19:22;19.70;99.90
59146;DHT22;44928;53.074;6.646;2022-09-09T14:21:48;19.70;99.90
59146;DHT22;44928;53.074;6.646;2022-09-09T14:24:14;19.70;99.90
59146;DHT22;44928;53.074;6.646;2022-09-09T14:26:39;19.60;99.90
59146;DHT22;44928;53.074;6.646;2022-09-09T14:29:06;19.60;99.90
59146;DHT22;44928;53.074;6.646;2022-09-09T14:31:32;19.40;99.90
59146;DHT22;44928;53.074;6.646;2022-09-09T14:33:58;19.30;99.90
59146;DHT22;44928;53.074;6.646;2022-09-09T14:36:24;19.10;99.90
59146;DHT22;44928;53.074;6.646;2022-09-09T14:38:50;19.00;99.90
59146;DHT22;44928;53.074;6.646;2022-09-09T14:41:18;18.90;99.90
59146;DHT22;44928;53.074;6.646;2022-09-09T14:43:44;18.90;99.90
59146;DHT22;44928;53.074;6.646;2022-09-09T14:46:13;18.90;99.90
59146;DHT22;44928;53.074;6.646;2022-09-09T14:48:39;18.90;99.90
59146;DHT22;44928;53.074;6.646;2022-09-09T14:51:11;19.00;99.90
59146;DHT22;44928;53.074;6.646;2022-09-09T14:53:41;19.00;99.90
59146;DHT22;44928;53.074;6.646;2022-09-09T14:56:14;19.00;99.90
59146;DHT22;44928;53.074;6.646;2022-09-09T14:58:41;19.00;99.90
59146;DHT22;44928;53.074;6.646;2022-09-09T15:01:08;19.00;99.90
59146;DHT22;44928;53.074;6.646;2022-09-09T15:03:39;19.00;99.90
59146;DHT22;44928;53.074;6.646;2022-09-09T15:06:10;19.10;99.90
59146;DHT22;44928;53.074;6.646;2022-09-09T15:08:37;19.00;99.90
59146;DHT22;44928;53.074;6.646;2022-09-09T15:11:04;19.00;99.90
59146;DHT22;44928;53.074;6.646;2022-09-09T15:13:30;19.00;99.90
59146;DHT22;44928;53.074;6.646;2022-09-09T15:16:07;19.00;99.90
59146;DHT22;44928;53.074;6.646;2022-09-09T15:18:34;19.00;99.90
59146;DHT22;44928;53.074;6.646;2022-09-09T15:21:02;19.00;99.90
59146;DHT22;44928;53.074;6.646;2022-09-09T15:23:33;18.90;99.90
59146;DHT22;44928;53.074;6.646;2022-09-09T15:25:59;18.90;99.90
59146;DHT22;44928;53.074;6.646;2022-09-09T15:28:26;18.80;99.90
59146;DHT22;44928;53.074;6.646;2022-09-09T15:30:53;18.80;99.90
59146;DHT22;44928;53.074;6.646;2022-09-09T15:33:20;18.70;99.90
59146;DHT22;44928;53.074;6.646;2022-09-09T15:35:46;18.70;99.90
59146;DHT22;44928;53.074;6.646;2022-09-09T15:38:12;18.70;99.90
59146;DHT22;44928;53.074;6.646;2022-09-09T15:40:42;18.70;99.90
59146;DHT22;44928;53.074;6.646;2022-09-09T15:43:09;18.60;99.90
59146;DHT22;44928;53.074;6.646;2022-09-09T15:45:36;18.60;99.90
59146;DHT22;44928;53.074;6.646;2022-09-09T15:48:03;18.50;99.90
59146;DHT22;44928;53.074;6.646;2022-09-09T15:50:29;18.50;99.90
59146;DHT22;44928;53.074;6.646;2022-09-09T15:52:59;18.40;99.90
59146;DHT22;44928;53.074;6.646;2022-09-09T15:55:25;18.40;99.90
59146;DHT22;44928;53.074;6.646;2022-09-09T15:57:51;18.30;99.90
59146;DHT22;44928;53.074;6.646;2022-09-09T16:00:19;18.30;99.90
59146;DHT22;44928;53.074;6.646;2022-09-09T16:02:47;18.30;99.90
59146;DHT22;44928;53.074;6.646;2022-09-09T16:05:12;18.20;99.90
59146;DHT22;44928;53.074;6.646;2022-09-09T16:07:38;18.20;99.90
59146;DHT22;44928;53.074;6.646;2022-09-09T16:10:05;18.20;99.90
59146;DHT22;44928;53.074;6.646;2022-09-09T16:12:31;18.20;99.90
59146;DHT22;44928;53.074;6.646;2022-09-09T16:14:57;18.20;99.90
59146;DHT22;44928;53.074;6.646;2022-09-09T16:17:23;18.20;99.90
59146;DHT22;44928;53.074;6.646;2022-09-09T16:19:48;18.20;99.90
59146;DHT22;44928;53.074;6.646;2022-09-09T16:22:14;18.20;99.90
59146;DHT22;44928;53.074;6.646;2022-09-09T16:24:41;18.20;99.90
59146;DHT22;44928;53.074;6.646;2022-09-09T16:27:07;18.20;99.90
59146;DHT22;44928;53.074;6.646;2022-09-09T16:29:33;18.20;99.90
59146;DHT22;44928;53.074;6.646;2022-09-09T16:31:59;18.20;99.90
59146;DHT22;44928;53.074;6.646;2022-09-09T16:34:25;18.10;99.90
59146;DHT22;44928;53.074;6.646;2022-09-09T16:36:51;18.10;99.90
59146;DHT22;44928;53.074;6.646;2022-09-09T16:39:19;18.10;99.90
59146;DHT22;44928;53.074;6.646;2022-09-09T16:41:46;18.00;99.90
59146;DHT22;44928;53.074;6.646;2022-09-09T16:44:17;18.00;99.90
59146;DHT22;44928;53.074;6.646;2022-09-09T16:46:44;18.00;99.90
59146;DHT22;44928;53.074;6.646;2022-09-09T16:49:13;18.00;99.90
59146;DHT22;44928;53.074;6.646;2022-09-09T16:51:43;18.00;99.90
59146;DHT22;44928;53.074;6.646;2022-09-09T16:54:10;17.90;99.90
59146;DHT22;44928;53.074;6.646;2022-09-09T16:56:40;17.90;99.90
59146;DHT22;44928;53.074;6.646;2022-09-09T16:59:11;17.90;99.90
59146;DHT22;44928;53.074;6.646;2022-09-09T17:01:39;17.90;99.90
59146;DHT22;44928;53.074;6.646;2022-09-09T17:04:11;17.90;99.90
59146;DHT22;44928;53.074;6.646;2022-09-09T17:06:38;17.90;99.90
59146;DHT22;44928;53.074;6.646;2022-09-09T17:09:07;17.80;99.90
59146;DHT22;44928;53.074;6.646;2022-09-09T17:11:33;17.80;99.90
59146;DHT22;44928;53.074;6.646;2022-09-09T17:13:59;17.80;99.90
59146;DHT22;44928;53.074;6.646;2022-09-09T17:16:29;17.80;99.90
59146;DHT22;44928;53.074;6.646;2022-09-09T17:18:56;17.80;99.90
59146;DHT22;44928;53.074;6.646;2022-09-09T17:21:24;17.80;99.90
59146;DHT22;44928;53.074;6.646;2022-09-09T17:23:51;17.80;99.90
59146;DHT22;44928;53.074;6.646;2022-09-09T17:26:19;17.80;99.90
59146;DHT22;44928;53.074;6.646;2022-09-09T17:28:46;17.80;99.90
59146;DHT22;44928;53.074;6.646;2022-09-09T17:31:15;17.80;99.90
59146;DHT22;44928;53.074;6.646;2022-09-09T17:33:43;17.80;99.90
59146;DHT22;44928;53.074;6.646;2022-09-09T17:36:12;17.80;99.90
59146;DHT22;44928;53.074;6.646;2022-09-09T17:38:40;17.80;99.90
59146;DHT22;44928;53.074;6.646;2022-09-09T17:41:14;17.80;99.90
59146;DHT22;44928;53.074;6.646;2022-09-09T17:43:40;17.80;99.90
59146;DHT22;44928;53.074;6.646;2022-09-09T17:46:19;17.70;99.90
59146;DHT22;44928;53.074;6.646;2022-09-09T17:48:47;17.70;99.90
59146;DHT22;44928;53.074;6.646;2022-09-09T17:51:20;17.70;99.90
59146;DHT22;44928;53.074;6.646;2022-09-09T17:53:49;17.70;99.90
59146;DHT22;44928;53.074;6.646;2022-09-09T17:56:19;17.70;99.90
59146;DHT22;44928;53.074;6.646;2022-09-09T17:58:46;17.70;99.90
59146;DHT22;44928;53.074;6.646;2022-09-09T18:01:18;17.60;99.90
59146;DHT22;44928;53.074;6.646;2022-09-09T18:03:45;17.60;99.90